sensor_id;sensor_type;location;lat;lon;timestamp;P1;durP1;ratioP1;P2;durP2;ratioP2
55368;SDS011;41247;49.736;8.752;2023-04-03T00:01:50;8.98;;;6.38;;
55368;SDS011;41247;49.736;8.752;2023-04-03T00:05:31;11.05;;;6.65;;
55368;SDS011;41247;49.736;8.752;2023-04-03T00:09:12;16.75;;;6.40;;
55368;SDS011;41247;49.736;8.752;2023-04-03T00:12:52;12.98;;;6.47;;
55368;SDS011;41247;49.736;8.752;2023-04-03T00:16:33;12.25;;;6.32;;
55368;SDS011;41247;49.736;8.752;2023-04-03T00:20:14;12.00;;;6.80;;
55368;SDS011;41247;49.736;8.752;2023-04-03T00:23:54;15.75;;;7.47;;
55368;SDS011;41247;49.736;8.752;2023-04-03T00:27:38;19.90;;;7.53;;
55368;SDS011;41247;49.736;8.752;2023-04-03T00:31:19;10.68;;;6.95;;
55368;SDS011;41247;49.736;8.752;2023-04-03T00:35:00;11.48;;;7.35;;
55368;SDS011;41247;49.736;8.752;2023-04-03T00:38:40;12.10;;;6.75;;
55368;SDS011;41247;49.736;8.752;2023-04-03T00:42:21;11.02;;;7.18;;
55368;SDS011;41247;49.736;8.752;2023-04-03T00:46:02;11.27;;;7.78;;
55368;SDS011;41247;49.736;8.752;2023-04-03T00:49:43;15.80;;;8.48;;
55368;SDS011;41247;49.736;8.752;2023-04-03T00:53:33;14.55;;;8.38;;
55368;SDS011;41247;49.736;8.752;2023-04-03T01:01:04;15.88;;;8.73;;
55368;SDS011;41247;49.736;8.752;2023-04-03T01:04:48;11.50;;;7.50;;
55368;SDS011;41247;49.736;8.752;2023-04-03T01:08:29;13.45;;;7.90;;
55368;SDS011;41247;49.736;8.752;2023-04-03T01:12:27;12.80;;;7.93;;
55368;SDS011;41247;49.736;8.752;2023-04-03T01:16:13;12.15;;;7.95;;
55368;SDS011;41247;49.736;8.752;2023-04-03T01:20:13;12.13;;;8.27;;
55368;SDS011;41247;49.736;8.752;2023-04-03T01:24:30;17.05;;;8.43;;
55368;SDS011;41247;49.736;8.752;2023-04-03T01:28:16;13.38;;;7.70;;
55368;SDS011;41247;49.736;8.752;2023-04-03T01:32:09;14.15;;;8.25;;
55368;SDS011;41247;49.736;8.752;2023-04-03T01:35:50;13.90;;;8.43;;
55368;SDS011;41247;49.736;8.752;2023-04-03T01:39:30;13.88;;;8.10;;
55368;SDS011;41247;49.736;8.752;2023-04-03T01:43:11;16.45;;;8.90;;
55368;SDS011;41247;49.736;8.752;2023-04-03T01:46:51;16.05;;;9.05;;
55368;SDS011;41247;49.736;8.752;2023-04-03T01:50:32;13.35;;;8.32;;
55368;SDS011;41247;49.736;8.752;2023-04-03T01:54:13;14.18;;;8.40;;
55368;SDS011;41247;49.736;8.752;2023-04-03T01:57:53;14.52;;;8.50;;
55368;SDS011;41247;49.736;8.752;2023-04-03T02:01:34;18.33;;;8.63;;
55368;SDS011;41247;49.736;8.752;2023-04-03T02:05:14;14.82;;;8.68;;
55368;SDS011;41247;49.736;8.752;2023-04-03T02:08:55;13.23;;;8.05;;
55368;SDS011;41247;49.736;8.752;2023-04-03T02:12:36;13.57;;;8.15;;
55368;SDS011;41247;49.736;8.752;2023-04-03T02:16:16;17.65;;;9.07;;
55368;SDS011;41247;49.736;8.752;2023-04-03T02:19:57;13.15;;;8.65;;
55368;SDS011;41247;49.736;8.752;2023-04-03T02:23:38;17.75;;;8.13;;
55368;SDS011;41247;49.736;8.752;2023-04-03T02:27:18;18.73;;;8.32;;
55368;SDS011;41247;49.736;8.752;2023-04-03T02:30:59;14.82;;;8.73;;
55368;SDS011;41247;49.736;8.752;2023-04-03T02:34:39;20.67;;;8.68;;
55368;SDS011;41247;49.736;8.752;2023-04-03T02:38:20;13.05;;;8.25;;
55368;SDS011;41247;49.736;8.752;2023-04-03T02:42:01;12.52;;;7.85;;
55368;SDS011;41247;49.736;8.752;2023-04-03T02:45:42;20.13;;;8.20;;
55368;SDS011;41247;49.736;8.752;2023-04-03T02:49:22;15.32;;;8.30;;
55368;SDS011;41247;49.736;8.752;2023-04-03T02:53:03;12.05;;;7.47;;
55368;SDS011;41247;49.736;8.752;2023-04-03T02:56:43;14.70;;;8.15;;
55368;SDS011;41247;49.736;8.752;2023-04-03T03:00:24;15.57;;;8.88;;
55368;SDS011;41247;49.736;8.752;2023-04-03T03:04:05;14.38;;;8.60;;
55368;SDS011;41247;49.736;8.752;2023-04-03T03:07:45;15.00;;;7.72;;
55368;SDS011;41247;49.736;8.752;2023-04-03T03:11:26;13.57;;;7.82;;
55368;SDS011;41247;49.736;8.752;2023-04-03T03:15:07;17.85;;;7.80;;
55368;SDS011;41247;49.736;8.752;2023-04-03T03:18:48;12.98;;;7.97;;
55368;SDS011;41247;49.736;8.752;2023-04-03T03:22:28;13.85;;;7.78;;
55368;SDS011;41247;49.736;8.752;2023-04-03T03:26:10;11.02;;;7.50;;
55368;SDS011;41247;49.736;8.752;2023-04-03T03:29:51;11.77;;;7.22;;
55368;SDS011;41247;49.736;8.752;2023-04-03T03:33:31;14.95;;;7.53;;
55368;SDS011;41247;49.736;8.752;2023-04-03T03:37:12;10.23;;;7.10;;
55368;SDS011;41247;49.736;8.752;2023-04-03T03:40:52;11.48;;;6.80;;
55368;SDS011;41247;49.736;8.752;2023-04-03T03:44:33;12.38;;;7.03;;
55368;SDS011;41247;49.736;8.752;2023-04-03T03:48:14;10.93;;;6.85;;
55368;SDS011;41247;49.736;8.752;2023-04-03T03:51:54;10.25;;;7.00;;
55368;SDS011;41247;49.736;8.752;2023-04-03T03:55:35;9.80;;;6.82;;
55368;SDS011;41247;49.736;8.752;2023-04-03T03:59:16;13.13;;;7.20;;
55368;SDS011;41247;49.736;8.752;2023-04-03T04:02:56;9.95;;;7.20;;
55368;SDS011;41247;49.736;8.752;2023-04-03T04:06:37;11.98;;;6.85;;
55368;SDS011;41247;49.736;8.752;2023-04-03T04:10:18;13.68;;;6.80;;
55368;SDS011;41247;49.736;8.752;2023-04-03T04:13:58;11.20;;;6.88;;
55368;SDS011;41247;49.736;8.752;2023-04-03T04:17:39;10.02;;;6.63;;
55368;SDS011;41247;49.736;8.752;2023-04-03T04:21:19;10.07;;;6.75;;
55368;SDS011;41247;49.736;8.752;2023-04-03T04:25:00;12.25;;;6.57;;
55368;SDS011;41247;49.736;8.752;2023-04-03T04:28:40;12.05;;;6.78;;
55368;SDS011;41247;49.736;8.752;2023-04-03T04:32:21;13.73;;;6.85;;
55368;SDS011;41247;49.736;8.752;2023-04-03T04:36:02;12.85;;;6.63;;
55368;SDS011;41247;49.736;8.752;2023-04-03T04:39:42;11.52;;;6.50;;
55368;SDS011;41247;49.736;8.752;2023-04-03T04:43:23;12.70;;;7.03;;
55368;SDS011;41247;49.736;8.752;2023-04-03T04:47:04;11.23;;;6.50;;
55368;SDS011;41247;49.736;8.752;2023-04-03T04:50:45;12.18;;;6.30;;
55368;SDS011;41247;49.736;8.752;2023-04-03T04:54:26;9.80;;;5.93;;
55368;SDS011;41247;49.736;8.752;2023-04-03T04:58:07;12.38;;;6.20;;
55368;SDS011;41247;49.736;8.752;2023-04-03T05:01:47;12.85;;;6.47;;
55368;SDS011;41247;49.736;8.752;2023-04-03T05:05:28;13.25;;;6.43;;
55368;SDS011;41247;49.736;8.752;2023-04-03T05:09:08;12.80;;;6.85;;
55368;SDS011;41247;49.736;8.752;2023-04-03T05:12:49;16.02;;;7.63;;
55368;SDS011;41247;49.736;8.752;2023-04-03T05:16:30;13.35;;;6.70;;
55368;SDS011;41247;49.736;8.752;2023-04-03T05:20:11;10.43;;;7.00;;
55368;SDS011;41247;49.736;8.752;2023-04-03T05:23:53;13.77;;;7.47;;
55368;SDS011;41247;49.736;8.752;2023-04-03T05:27:33;15.63;;;7.03;;
55368;SDS011;41247;49.736;8.752;2023-04-03T05:31:15;14.73;;;6.88;;
55368;SDS011;41247;49.736;8.752;2023-04-03T05:34:56;16.08;;;7.40;;
55368;SDS011;41247;49.736;8.752;2023-04-03T05:38:36;17.98;;;7.10;;
55368;SDS011;41247;49.736;8.752;2023-04-03T05:42:17;12.55;;;6.80;;
55368;SDS011;41247;49.736;8.752;2023-04-03T05:45:58;13.75;;;7.68;;
55368;SDS011;41247;49.736;8.752;2023-04-03T05:49:38;17.77;;;8.68;;
55368;SDS011;41247;49.736;8.752;2023-04-03T05:53:21;15.68;;;7.93;;
55368;SDS011;41247;49.736;8.752;2023-04-03T05:57:07;14.65;;;8.50;;
55368;SDS011;41247;49.736;8.752;2023-04-03T06:00:48;14.88;;;8.68;;
55368;SDS011;41247;49.736;8.752;2023-04-03T06:04:29;20.95;;;9.27;;
55368;SDS011;41247;49.736;8.752;2023-04-03T06:08:09;17.75;;;8.43;;
55368;SDS011;41247;49.736;8.752;2023-04-03T06:11:50;20.38;;;9.20;;
55368;SDS011;41247;49.736;8.752;2023-04-03T06:15:31;15.60;;;9.43;;
55368;SDS011;41247;49.736;8.752;2023-04-03T06:19:12;17.42;;;8.82;;
55368;SDS011;41247;49.736;8.752;2023-04-03T06:22:52;24.75;;;8.50;;
55368;SDS011;41247;49.736;8.752;2023-04-03T06:26:34;15.25;;;7.90;;
55368;SDS011;41247;49.736;8.752;2023-04-03T06:30:15;12.90;;;7.97;;
55368;SDS011;41247;49.736;8.752;2023-04-03T06:33:56;17.90;;;8.05;;
55368;SDS011;41247;49.736;8.752;2023-04-03T06:37:37;14.52;;;7.80;;
55368;SDS011;41247;49.736;8.752;2023-04-03T06:41:18;16.20;;;7.60;;
55368;SDS011;41247;49.736;8.752;2023-04-03T06:44:58;15.15;;;7.60;;
55368;SDS011;41247;49.736;8.752;2023-04-03T06:48:39;12.98;;;7.03;;
55368;SDS011;41247;49.736;8.752;2023-04-03T06:52:20;10.18;;;6.63;;
55368;SDS011;41247;49.736;8.752;2023-04-03T06:56:02;15.07;;;6.85;;
55368;SDS011;41247;49.736;8.752;2023-04-03T06:59:43;9.77;;;5.97;;
55368;SDS011;41247;49.736;8.752;2023-04-03T07:03:23;15.07;;;6.45;;
55368;SDS011;41247;49.736;8.752;2023-04-03T07:07:04;13.15;;;5.93;;
55368;SDS011;41247;49.736;8.752;2023-04-03T07:10:45;10.60;;;5.90;;
55368;SDS011;41247;49.736;8.752;2023-04-03T07:14:25;15.13;;;5.85;;
55368;SDS011;41247;49.736;8.752;2023-04-03T07:18:06;12.48;;;5.53;;
55368;SDS011;41247;49.736;8.752;2023-04-03T07:21:46;12.15;;;5.10;;
55368;SDS011;41247;49.736;8.752;2023-04-03T07:25:27;13.10;;;3.83;;
55368;SDS011;41247;49.736;8.752;2023-04-03T07:29:08;15.25;;;4.53;;
55368;SDS011;41247;49.736;8.752;2023-04-03T07:32:49;8.77;;;3.22;;
55368;SDS011;41247;49.736;8.752;2023-04-03T07:36:29;5.85;;;3.08;;
55368;SDS011;41247;49.736;8.752;2023-04-03T07:40:10;8.57;;;2.63;;
55368;SDS011;41247;49.736;8.752;2023-04-03T07:43:51;6.18;;;2.13;;
55368;SDS011;41247;49.736;8.752;2023-04-03T07:47:32;8.63;;;2.35;;
55368;SDS011;41247;49.736;8.752;2023-04-03T07:51:12;6.18;;;2.30;;
55368;SDS011;41247;49.736;8.752;2023-04-03T07:54:53;8.02;;;2.28;;
55368;SDS011;41247;49.736;8.752;2023-04-03T07:58:33;5.15;;;1.90;;
55368;SDS011;41247;49.736;8.752;2023-04-03T08:02:14;6.53;;;2.17;;
55368;SDS011;41247;49.736;8.752;2023-04-03T08:05:55;5.32;;;1.98;;
55368;SDS011;41247;49.736;8.752;2023-04-03T08:09:44;4.80;;;1.77;;
55368;SDS011;41247;49.736;8.752;2023-04-03T08:13:25;6.60;;;1.75;;
55368;SDS011;41247;49.736;8.752;2023-04-03T08:17:06;7.32;;;1.67;;
55368;SDS011;41247;49.736;8.752;2023-04-03T08:20:48;4.25;;;2.03;;
55368;SDS011;41247;49.736;8.752;2023-04-03T08:24:29;9.60;;;1.90;;
55368;SDS011;41247;49.736;8.752;2023-04-03T08:28:10;5.53;;;1.95;;
55368;SDS011;41247;49.736;8.752;2023-04-03T08:31:51;5.55;;;2.03;;
55368;SDS011;41247;49.736;8.752;2023-04-03T08:35:32;6.00;;;1.65;;
55368;SDS011;41247;49.736;8.752;2023-04-03T08:39:12;4.22;;;1.40;;
55368;SDS011;41247;49.736;8.752;2023-04-03T08:47:10;4.18;;;1.77;;
55368;SDS011;41247;49.736;8.752;2023-04-03T08:50:58;8.00;;;1.85;;
55368;SDS011;41247;49.736;8.752;2023-04-03T08:54:49;8.40;;;2.00;;
55368;SDS011;41247;49.736;8.752;2023-04-03T09:02:30;4.65;;;1.52;;
55368;SDS011;41247;49.736;8.752;2023-04-03T09:10:01;4.70;;;1.40;;
55368;SDS011;41247;49.736;8.752;2023-04-03T09:13:49;4.75;;;1.50;;
55368;SDS011;41247;49.736;8.752;2023-04-03T09:21:39;6.63;;;1.60;;
55368;SDS011;41247;49.736;8.752;2023-04-03T09:25:21;2.67;;;1.30;;
55368;SDS011;41247;49.736;8.752;2023-04-03T09:29:07;6.65;;;1.60;;
55368;SDS011;41247;49.736;8.752;2023-04-03T09:32:50;3.30;;;1.38;;
55368;SDS011;41247;49.736;8.752;2023-04-03T09:36:46;4.22;;;1.40;;
55368;SDS011;41247;49.736;8.752;2023-04-03T09:40:34;5.15;;;1.40;;
55368;SDS011;41247;49.736;8.752;2023-04-03T09:44:23;4.20;;;1.50;;
55368;SDS011;41247;49.736;8.752;2023-04-03T09:51:53;4.22;;;1.30;;
55368;SDS011;41247;49.736;8.752;2023-04-03T09:55:41;4.75;;;1.30;;
55368;SDS011;41247;49.736;8.752;2023-04-03T09:59:23;3.97;;;1.10;;
55368;SDS011;41247;49.736;8.752;2023-04-03T10:03:04;5.07;;;1.30;;
55368;SDS011;41247;49.736;8.752;2023-04-03T10:06:50;5.50;;;1.40;;
55368;SDS011;41247;49.736;8.752;2023-04-03T10:10:34;3.25;;;1.08;;
55368;SDS011;41247;49.736;8.752;2023-04-03T10:14:16;3.88;;;1.35;;
55368;SDS011;41247;49.736;8.752;2023-04-03T10:17:57;2.90;;;1.23;;
55368;SDS011;41247;49.736;8.752;2023-04-03T10:34:37;6.07;;;1.23;;
55368;SDS011;41247;49.736;8.752;2023-04-03T10:39:08;6.97;;;1.20;;
55368;SDS011;41247;49.736;8.752;2023-04-03T10:42:46;3.67;;;1.50;;
55368;SDS011;41247;49.736;8.752;2023-04-03T10:46:49;4.00;;;1.30;;
55368;SDS011;41247;49.736;8.752;2023-04-03T10:51:06;3.42;;;1.30;;
55368;SDS011;41247;49.736;8.752;2023-04-03T10:59:36;5.35;;;1.35;;
55368;SDS011;41247;49.736;8.752;2023-04-03T11:03:31;3.03;;;1.00;;
55368;SDS011;41247;49.736;8.752;2023-04-03T11:07:22;4.35;;;1.67;;
55368;SDS011;41247;49.736;8.752;2023-04-03T11:11:08;4.38;;;1.23;;
55368;SDS011;41247;49.736;8.752;2023-04-03T11:14:55;2.78;;;1.42;;
55368;SDS011;41247;49.736;8.752;2023-04-03T11:18:42;4.68;;;1.50;;
55368;SDS011;41247;49.736;8.752;2023-04-03T11:26:20;3.88;;;1.50;;
55368;SDS011;41247;49.736;8.752;2023-04-03T11:30:09;7.80;;;1.50;;
55368;SDS011;41247;49.736;8.752;2023-04-03T11:38:17;3.38;;;1.30;;
55368;SDS011;41247;49.736;8.752;2023-04-03T11:42:25;4.47;;;1.23;;
55368;SDS011;41247;49.736;8.752;2023-04-03T11:46:17;3.03;;;1.20;;
55368;SDS011;41247;49.736;8.752;2023-04-03T11:50:04;4.28;;;1.58;;
55368;SDS011;41247;49.736;8.752;2023-04-03T11:53:46;3.75;;;1.33;;
55368;SDS011;41247;49.736;8.752;2023-04-03T12:01:56;5.75;;;1.60;;
55368;SDS011;41247;49.736;8.752;2023-04-03T12:05:37;4.47;;;1.50;;
55368;SDS011;41247;49.736;8.752;2023-04-03T12:09:35;4.15;;;1.40;;
55368;SDS011;41247;49.736;8.752;2023-04-03T12:17:36;4.82;;;1.35;;
55368;SDS011;41247;49.736;8.752;2023-04-03T12:21:20;4.20;;;1.50;;
55368;SDS011;41247;49.736;8.752;2023-04-03T12:25:43;4.63;;;1.52;;
55368;SDS011;41247;49.736;8.752;2023-04-03T12:29:45;4.40;;;1.35;;
55368;SDS011;41247;49.736;8.752;2023-04-03T12:33:52;4.35;;;1.50;;
55368;SDS011;41247;49.736;8.752;2023-04-03T12:42:24;2.20;;;1.50;;
55368;SDS011;41247;49.736;8.752;2023-04-03T12:46:34;4.20;;;1.20;;
55368;SDS011;41247;49.736;8.752;2023-04-03T12:50:24;2.63;;;1.40;;
55368;SDS011;41247;49.736;8.752;2023-04-03T12:54:25;2.92;;;1.50;;
55368;SDS011;41247;49.736;8.752;2023-04-03T12:58:19;3.42;;;1.30;;
55368;SDS011;41247;49.736;8.752;2023-04-03T13:02:09;4.03;;;1.63;;
55368;SDS011;41247;49.736;8.752;2023-04-03T13:06:10;4.78;;;1.73;;
55368;SDS011;41247;49.736;8.752;2023-04-03T13:13:53;6.18;;;1.90;;
55368;SDS011;41247;49.736;8.752;2023-04-03T13:17:45;2.55;;;1.30;;
55368;SDS011;41247;49.736;8.752;2023-04-03T13:21:27;3.75;;;1.42;;
55368;SDS011;41247;49.736;8.752;2023-04-03T13:25:10;2.78;;;1.20;;
55368;SDS011;41247;49.736;8.752;2023-04-03T13:28:56;3.08;;;1.40;;
55368;SDS011;41247;49.736;8.752;2023-04-03T13:32:57;4.05;;;1.30;;
55368;SDS011;41247;49.736;8.752;2023-04-03T13:36:43;6.32;;;1.70;;
55368;SDS011;41247;49.736;8.752;2023-04-03T13:40:46;2.47;;;1.30;;
55368;SDS011;41247;49.736;8.752;2023-04-03T13:44:42;2.88;;;1.30;;
55368;SDS011;41247;49.736;8.752;2023-04-03T13:48:23;4.70;;;1.40;;
55368;SDS011;41247;49.736;8.752;2023-04-03T13:59:44;3.90;;;1.45;;
55368;SDS011;41247;49.736;8.752;2023-04-03T14:03:28;3.40;;;1.40;;
55368;SDS011;41247;49.736;8.752;2023-04-03T14:07:35;6.22;;;1.30;;
55368;SDS011;41247;49.736;8.752;2023-04-03T14:11:19;4.30;;;1.40;;
55368;SDS011;41247;49.736;8.752;2023-04-03T14:15:05;4.25;;;1.30;;
55368;SDS011;41247;49.736;8.752;2023-04-03T14:18:58;3.05;;;1.27;;
55368;SDS011;41247;49.736;8.752;2023-04-03T14:22:39;2.95;;;1.30;;
55368;SDS011;41247;49.736;8.752;2023-04-03T14:26:20;4.20;;;1.20;;
55368;SDS011;41247;49.736;8.752;2023-04-03T14:30:04;3.05;;;1.30;;
55368;SDS011;41247;49.736;8.752;2023-04-03T14:33:52;3.45;;;1.20;;
55368;SDS011;41247;49.736;8.752;2023-04-03T14:37:33;2.40;;;1.08;;
55368;SDS011;41247;49.736;8.752;2023-04-03T14:41:15;4.90;;;1.30;;
55368;SDS011;41247;49.736;8.752;2023-04-03T14:44:59;4.65;;;1.30;;
55368;SDS011;41247;49.736;8.752;2023-04-03T14:52:25;4.85;;;1.20;;
55368;SDS011;41247;49.736;8.752;2023-04-03T14:56:17;4.13;;;1.10;;
55368;SDS011;41247;49.736;8.752;2023-04-03T15:00:03;5.18;;;1.25;;
55368;SDS011;41247;49.736;8.752;2023-04-03T15:03:46;2.72;;;1.00;;
55368;SDS011;41247;49.736;8.752;2023-04-03T15:07:27;2.80;;;1.10;;
55368;SDS011;41247;49.736;8.752;2023-04-03T15:11:10;2.70;;;1.02;;
55368;SDS011;41247;49.736;8.752;2023-04-03T15:14:51;3.08;;;1.08;;
55368;SDS011;41247;49.736;8.752;2023-04-03T15:18:34;2.30;;;0.95;;
55368;SDS011;41247;49.736;8.752;2023-04-03T15:22:19;3.63;;;1.23;;
55368;SDS011;41247;49.736;8.752;2023-04-03T15:25:59;2.63;;;0.70;;
55368;SDS011;41247;49.736;8.752;2023-04-03T15:29:41;2.63;;;1.00;;
55368;SDS011;41247;49.736;8.752;2023-04-03T15:33:23;2.17;;;1.00;;
55368;SDS011;41247;49.736;8.752;2023-04-03T15:37:05;2.08;;;1.08;;
55368;SDS011;41247;49.736;8.752;2023-04-03T15:40:46;2.10;;;0.80;;
55368;SDS011;41247;49.736;8.752;2023-04-03T15:44:26;1.98;;;1.00;;
55368;SDS011;41247;49.736;8.752;2023-04-03T15:48:07;2.72;;;1.10;;
55368;SDS011;41247;49.736;8.752;2023-04-03T15:51:48;3.85;;;1.00;;
55368;SDS011;41247;49.736;8.752;2023-04-03T15:55:30;3.65;;;0.93;;
55368;SDS011;41247;49.736;8.752;2023-04-03T15:59:12;4.28;;;1.08;;
55368;SDS011;41247;49.736;8.752;2023-04-03T16:03:00;2.20;;;1.05;;
55368;SDS011;41247;49.736;8.752;2023-04-03T16:06:45;4.18;;;1.33;;
55368;SDS011;41247;49.736;8.752;2023-04-03T16:10:26;4.15;;;1.30;;
55368;SDS011;41247;49.736;8.752;2023-04-03T16:14:07;4.13;;;1.45;;
55368;SDS011;41247;49.736;8.752;2023-04-03T16:17:48;5.28;;;1.27;;
55368;SDS011;41247;49.736;8.752;2023-04-03T16:21:28;7.03;;;1.75;;
55368;SDS011;41247;49.736;8.752;2023-04-03T16:25:10;4.47;;;1.55;;
55368;SDS011;41247;49.736;8.752;2023-04-03T16:28:51;5.13;;;1.60;;
55368;SDS011;41247;49.736;8.752;2023-04-03T16:32:32;4.20;;;1.27;;
55368;SDS011;41247;49.736;8.752;2023-04-03T16:36:13;3.67;;;1.52;;
55368;SDS011;41247;49.736;8.752;2023-04-03T16:39:54;7.65;;;1.60;;
55368;SDS011;41247;49.736;8.752;2023-04-03T16:43:35;4.75;;;1.70;;
55368;SDS011;41247;49.736;8.752;2023-04-03T16:47:15;3.40;;;1.60;;
55368;SDS011;41247;49.736;8.752;2023-04-03T16:50:56;4.10;;;1.70;;
55368;SDS011;41247;49.736;8.752;2023-04-03T16:54:36;4.53;;;1.70;;
55368;SDS011;41247;49.736;8.752;2023-04-03T16:58:17;2.92;;;1.42;;
55368;SDS011;41247;49.736;8.752;2023-04-03T17:01:58;2.92;;;1.30;;
55368;SDS011;41247;49.736;8.752;2023-04-03T17:05:38;3.33;;;1.50;;
55368;SDS011;41247;49.736;8.752;2023-04-03T17:09:19;4.10;;;1.70;;
55368;SDS011;41247;49.736;8.752;2023-04-03T17:12:59;3.53;;;1.45;;
55368;SDS011;41247;49.736;8.752;2023-04-03T17:16:41;3.63;;;1.30;;
55368;SDS011;41247;49.736;8.752;2023-04-03T17:20:22;3.35;;;1.52;;
55368;SDS011;41247;49.736;8.752;2023-04-03T17:24:03;2.85;;;1.42;;
55368;SDS011;41247;49.736;8.752;2023-04-03T17:27:46;3.87;;;1.50;;
55368;SDS011;41247;49.736;8.752;2023-04-03T17:31:26;5.70;;;1.48;;
55368;SDS011;41247;49.736;8.752;2023-04-03T17:35:07;2.83;;;1.58;;
55368;SDS011;41247;49.736;8.752;2023-04-03T17:38:49;3.88;;;1.45;;
55368;SDS011;41247;49.736;8.752;2023-04-03T17:42:30;4.32;;;1.50;;
55368;SDS011;41247;49.736;8.752;2023-04-03T17:46:11;3.92;;;1.27;;
55368;SDS011;41247;49.736;8.752;2023-04-03T17:49:52;2.00;;;1.00;;
55368;SDS011;41247;49.736;8.752;2023-04-03T17:53:32;4.03;;;1.15;;
55368;SDS011;41247;49.736;8.752;2023-04-03T17:57:13;3.33;;;1.42;;
55368;SDS011;41247;49.736;8.752;2023-04-03T18:00:54;3.92;;;1.30;;
55368;SDS011;41247;49.736;8.752;2023-04-03T18:04:34;3.05;;;1.25;;
55368;SDS011;41247;49.736;8.752;2023-04-03T18:08:15;3.95;;;1.33;;
55368;SDS011;41247;49.736;8.752;2023-04-03T18:11:56;3.90;;;1.20;;
55368;SDS011;41247;49.736;8.752;2023-04-03T18:15:39;3.78;;;1.20;;
55368;SDS011;41247;49.736;8.752;2023-04-03T18:19:20;3.88;;;1.65;;
55368;SDS011;41247;49.736;8.752;2023-04-03T18:23:01;4.90;;;1.13;;
55368;SDS011;41247;49.736;8.752;2023-04-03T18:26:41;2.95;;;1.33;;
55368;SDS011;41247;49.736;8.752;2023-04-03T18:30:27;3.53;;;1.20;;
55368;SDS011;41247;49.736;8.752;2023-04-03T18:34:07;4.70;;;1.40;;
55368;SDS011;41247;49.736;8.752;2023-04-03T18:37:49;3.63;;;1.38;;
55368;SDS011;41247;49.736;8.752;2023-04-03T18:41:30;3.10;;;1.30;;
55368;SDS011;41247;49.736;8.752;2023-04-03T18:45:14;2.80;;;1.40;;
55368;SDS011;41247;49.736;8.752;2023-04-03T18:49:00;5.25;;;1.45;;
55368;SDS011;41247;49.736;8.752;2023-04-03T18:52:41;6.35;;;1.30;;
55368;SDS011;41247;49.736;8.752;2023-04-03T18:56:22;4.63;;;1.20;;
55368;SDS011;41247;49.736;8.752;2023-04-03T19:00:03;2.13;;;1.15;;
55368;SDS011;41247;49.736;8.752;2023-04-03T19:03:44;3.72;;;1.38;;
55368;SDS011;41247;49.736;8.752;2023-04-03T19:07:25;8.02;;;1.40;;
55368;SDS011;41247;49.736;8.752;2023-04-03T19:11:07;5.25;;;1.50;;
55368;SDS011;41247;49.736;8.752;2023-04-03T19:14:47;6.32;;;1.73;;
55368;SDS011;41247;49.736;8.752;2023-04-03T19:18:28;6.47;;;1.50;;
55368;SDS011;41247;49.736;8.752;2023-04-03T19:22:09;9.60;;;1.83;;
55368;SDS011;41247;49.736;8.752;2023-04-03T19:25:56;2.88;;;1.35;;
55368;SDS011;41247;49.736;8.752;2023-04-03T19:29:43;2.22;;;1.38;;
55368;SDS011;41247;49.736;8.752;2023-04-03T19:33:24;2.70;;;1.63;;
55368;SDS011;41247;49.736;8.752;2023-04-03T19:37:06;2.40;;;1.60;;
55368;SDS011;41247;49.736;8.752;2023-04-03T19:40:46;7.22;;;1.80;;
55368;SDS011;41247;49.736;8.752;2023-04-03T19:44:28;4.22;;;1.83;;
55368;SDS011;41247;49.736;8.752;2023-04-03T19:48:10;8.48;;;1.70;;
55368;SDS011;41247;49.736;8.752;2023-04-03T19:51:51;4.22;;;1.48;;
55368;SDS011;41247;49.736;8.752;2023-04-03T19:55:32;5.30;;;1.75;;
55368;SDS011;41247;49.736;8.752;2023-04-03T19:59:13;3.78;;;1.65;;
55368;SDS011;41247;49.736;8.752;2023-04-03T20:02:54;3.58;;;1.42;;
55368;SDS011;41247;49.736;8.752;2023-04-03T20:06:35;4.63;;;1.65;;
55368;SDS011;41247;49.736;8.752;2023-04-03T20:10:15;3.30;;;1.67;;
55368;SDS011;41247;49.736;8.752;2023-04-03T20:13:56;6.07;;;1.85;;
55368;SDS011;41247;49.736;8.752;2023-04-03T20:17:36;6.35;;;1.80;;
55368;SDS011;41247;49.736;8.752;2023-04-03T20:21:17;4.95;;;1.73;;
55368;SDS011;41247;49.736;8.752;2023-04-03T20:24:58;2.78;;;1.60;;
55368;SDS011;41247;49.736;8.752;2023-04-03T20:28:41;7.53;;;1.77;;
55368;SDS011;41247;49.736;8.752;2023-04-03T20:32:22;4.10;;;1.50;;
55368;SDS011;41247;49.736;8.752;2023-04-03T20:36:03;5.75;;;1.60;;
55368;SDS011;41247;49.736;8.752;2023-04-03T20:39:43;8.18;;;2.00;;
55368;SDS011;41247;49.736;8.752;2023-04-03T20:43:24;3.47;;;1.70;;
55368;SDS011;41247;49.736;8.752;2023-04-03T20:47:04;4.18;;;1.80;;
55368;SDS011;41247;49.736;8.752;2023-04-03T20:50:45;3.50;;;1.50;;
55368;SDS011;41247;49.736;8.752;2023-04-03T20:54:25;4.45;;;1.58;;
55368;SDS011;41247;49.736;8.752;2023-04-03T20:58:06;4.13;;;1.80;;
55368;SDS011;41247;49.736;8.752;2023-04-03T21:01:47;7.18;;;1.88;;
55368;SDS011;41247;49.736;8.752;2023-04-03T21:05:27;7.20;;;2.25;;
55368;SDS011;41247;49.736;8.752;2023-04-03T21:22:20;3.50;;;1.60;;
55368;SDS011;41247;49.736;8.752;2023-04-03T21:26:00;8.77;;;2.05;;
55368;SDS011;41247;49.736;8.752;2023-04-03T21:29:41;5.82;;;2.30;;
55368;SDS011;41247;49.736;8.752;2023-04-03T21:33:22;7.53;;;2.22;;
55368;SDS011;41247;49.736;8.752;2023-04-03T21:37:03;5.80;;;1.90;;
55368;SDS011;41247;49.736;8.752;2023-04-03T21:40:45;6.88;;;1.70;;
55368;SDS011;41247;49.736;8.752;2023-04-03T21:44:26;7.03;;;2.03;;
55368;SDS011;41247;49.736;8.752;2023-04-03T21:48:09;3.95;;;1.98;;
55368;SDS011;41247;49.736;8.752;2023-04-03T21:51:50;3.75;;;2.00;;
55368;SDS011;41247;49.736;8.752;2023-04-03T21:55:31;4.82;;;1.90;;
55368;SDS011;41247;49.736;8.752;2023-04-03T21:59:11;5.57;;;2.13;;
55368;SDS011;41247;49.736;8.752;2023-04-03T22:02:53;6.78;;;2.10;;
55368;SDS011;41247;49.736;8.752;2023-04-03T22:06:34;5.95;;;2.08;;
55368;SDS011;41247;49.736;8.752;2023-04-03T22:10:14;8.13;;;2.25;;
55368;SDS011;41247;49.736;8.752;2023-04-03T22:13:55;8.40;;;2.10;;
55368;SDS011;41247;49.736;8.752;2023-04-03T22:17:36;4.38;;;2.20;;
55368;SDS011;41247;49.736;8.752;2023-04-03T22:21:16;8.90;;;2.28;;
55368;SDS011;41247;49.736;8.752;2023-04-03T22:24:57;4.95;;;2.38;;
55368;SDS011;41247;49.736;8.752;2023-04-03T22:28:39;7.00;;;2.35;;
55368;SDS011;41247;49.736;8.752;2023-04-03T22:32:24;5.72;;;2.22;;
55368;SDS011;41247;49.736;8.752;2023-04-03T22:36:05;5.60;;;1.90;;
55368;SDS011;41247;49.736;8.752;2023-04-03T22:39:48;7.50;;;2.25;;
55368;SDS011;41247;49.736;8.752;2023-04-03T22:43:29;3.50;;;1.80;;
55368;SDS011;41247;49.736;8.752;2023-04-03T22:47:11;4.75;;;2.10;;
55368;SDS011;41247;49.736;8.752;2023-04-03T22:50:52;6.32;;;2.47;;
55368;SDS011;41247;49.736;8.752;2023-04-03T22:54:33;6.10;;;2.50;;
55368;SDS011;41247;49.736;8.752;2023-04-03T22:58:13;7.28;;;2.25;;
55368;SDS011;41247;49.736;8.752;2023-04-03T23:01:54;5.35;;;2.10;;
55368;SDS011;41247;49.736;8.752;2023-04-03T23:05:34;8.07;;;2.30;;
55368;SDS011;41247;49.736;8.752;2023-04-03T23:09:18;9.13;;;2.13;;
55368;SDS011;41247;49.736;8.752;2023-04-03T23:12:58;7.80;;;2.20;;
55368;SDS011;41247;49.736;8.752;2023-04-03T23:16:39;7.60;;;2.10;;
55368;SDS011;41247;49.736;8.752;2023-04-03T23:20:20;4.57;;;2.15;;
55368;SDS011;41247;49.736;8.752;2023-04-03T23:24:00;5.22;;;2.20;;
55368;SDS011;41247;49.736;8.752;2023-04-03T23:27:41;6.00;;;2.30;;
55368;SDS011;41247;49.736;8.752;2023-04-03T23:31:22;5.95;;;2.25;;
55368;SDS011;41247;49.736;8.752;2023-04-03T23:35:03;3.97;;;1.83;;
55368;SDS011;41247;49.736;8.752;2023-04-03T23:38:44;6.82;;;2.58;;
55368;SDS011;41247;49.736;8.752;2023-04-03T23:42:25;10.90;;;2.05;;
55368;SDS011;41247;49.736;8.752;2023-04-03T23:46:05;8.23;;;2.30;;
55368;SDS011;41247;49.736;8.752;2023-04-03T23:49:46;4.38;;;2.28;;